createdAt,value
2023-02-08T00:00:34.220Z,100.00
2023-02-08T00:05:36.648Z,100.00
2023-02-08T00:10:39.310Z,100.00
2023-02-08T00:15:43.705Z,100.00
2023-02-08T00:20:46.208Z,100.00
2023-02-08T00:25:52.166Z,100.00
2023-02-08T00:30:54.545Z,100.00
2023-02-08T00:36:07.260Z,100.00
2023-02-08T00:41:10.270Z,100.00
2023-02-08T00:46:12.889Z,100.00
2023-02-08T00:51:15.600Z,100.00
2023-02-08T00:56:18.344Z,100.00
2023-02-08T01:01:20.729Z,100.00
2023-02-08T01:06:23.021Z,100.00
2023-02-08T01:11:26.551Z,100.00
2023-02-08T01:16:33.537Z,100.00
2023-02-08T01:21:39.570Z,99.89
2023-02-08T01:26:41.980Z,100.00
2023-02-08T01:31:44.899Z,100.00
2023-02-08T01:36:47.462Z,100.00
2023-02-08T01:41:49.918Z,100.00
2023-02-08T01:46:52.309Z,100.00
2023-02-08T01:52:07.650Z,100.00
2023-02-08T01:57:10.877Z,100.00
2023-02-08T02:02:16.743Z,100.00
2023-02-08T02:07:21.745Z,100.00
2023-02-08T02:12:24.603Z,99.31
2023-02-08T02:17:27.199Z,98.05
2023-02-08T02:22:32.586Z,99.84
2023-02-08T02:28:02.689Z,98.89
2023-02-08T02:33:27.775Z,98.46
2023-02-08T02:38:52.964Z,98.17
2023-02-08T02:43:59.205Z,97.28
2023-02-08T02:49:20.306Z,96.01
2023-02-08T02:54:32.584Z,97.58
2023-02-08T02:59:37.135Z,97.38
2023-02-08T03:04:42.469Z,97.80
2023-02-08T03:10:06.443Z,97.18
2023-02-08T03:15:44.449Z,96.94
2023-02-08T03:20:54.221Z,95.99
2023-02-08T03:26:32.188Z,95.58
2023-02-08T03:31:37.697Z,96.56
2023-02-08T03:36:53.618Z,96.25
2023-02-08T03:42:00.915Z,97.27
2023-02-08T03:47:14.121Z,97.35
2023-02-08T03:52:17.309Z,99.28
2023-02-08T03:57:30.076Z,99.28
2023-02-08T04:02:36.352Z,100.00
2023-02-08T04:07:39.020Z,100.00
2023-02-08T04:12:41.172Z,100.00
2023-02-08T04:17:43.404Z,100.00
2023-02-08T04:22:45.852Z,100.00
2023-02-08T04:27:48.309Z,100.00
2023-02-08T04:32:50.509Z,100.00
2023-02-08T04:37:52.971Z,100.00
2023-02-08T04:42:55.322Z,100.00
2023-02-08T04:47:59.136Z,100.00
2023-02-08T04:53:01.466Z,100.00
2023-02-08T04:58:03.883Z,100.00
2023-02-08T05:03:06.204Z,100.00
2023-02-08T05:08:08.360Z,100.00
2023-02-08T05:13:10.655Z,100.00
2023-02-08T05:18:13.068Z,100.00
2023-02-08T05:23:15.263Z,100.00
2023-02-08T05:28:17.573Z,100.00
2023-02-08T05:33:20.042Z,100.00
2023-02-08T05:38:22.408Z,100.00
2023-02-08T05:43:24.655Z,100.00
2023-02-08T05:48:27.043Z,100.00
2023-02-08T05:53:29.901Z,100.00
2023-02-08T05:58:32.408Z,100.00
2023-02-08T06:03:34.589Z,100.00
2023-02-08T06:08:37.318Z,100.00
2023-02-08T06:13:39.523Z,100.00
2023-02-08T06:18:41.825Z,100.00
2023-02-08T06:23:44.263Z,100.00
2023-02-08T06:28:46.745Z,100.00
2023-02-08T06:33:49.073Z,100.00
2023-02-08T06:38:51.462Z,100.00
2023-02-08T06:43:53.739Z,100.00
2023-02-08T06:48:58.320Z,100.00
2023-02-08T06:54:00.725Z,100.00
2023-02-08T06:59:02.858Z,100.00
2023-02-08T07:04:05.766Z,98.07
2023-02-08T07:09:08.268Z,95.61
2023-02-08T07:14:15.764Z,93.86
2023-02-08T07:19:18.115Z,93.90
2023-02-08T07:24:20.417Z,92.19
2023-02-08T07:29:22.574Z,89.89
2023-02-08T07:34:25.063Z,90.33
2023-02-08T07:39:27.332Z,91.14
2023-02-08T07:44:29.769Z,92.14
2023-02-08T07:49:33.030Z,94.31
2023-02-08T07:54:35.394Z,92.19
2023-02-08T07:59:37.816Z,93.23
2023-02-08T08:04:40.212Z,93.33
2023-02-08T08:09:42.650Z,92.25
2023-02-08T08:14:45.021Z,93.54
2023-02-08T08:19:47.328Z,91.09
2023-02-08T08:24:49.577Z,89.19
2023-02-08T08:29:52.011Z,82.60
2023-02-08T08:34:54.320Z,81.58
2023-02-08T08:39:56.944Z,84.10
2023-02-08T08:44:59.165Z,85.92
2023-02-08T08:50:01.588Z,84.93
2023-02-08T08:55:04.092Z,83.01
2023-02-08T09:00:08.637Z,78.81
2023-02-08T09:05:11.098Z,77.72
2023-02-08T09:10:13.671Z,75.22
2023-02-08T09:15:16.078Z,73.13
2023-02-08T09:20:18.669Z,71.34
2023-02-08T09:25:21.074Z,68.70
2023-02-08T09:30:23.436Z,62.87
2023-02-08T09:35:25.799Z,52.16
2023-02-08T09:40:37.521Z,53.09
2023-02-08T09:45:59.262Z,53.41
2023-02-08T09:51:22.204Z,58.57
2023-02-08T09:56:32.527Z,61.23
2023-02-08T10:01:36.969Z,65.47
2023-02-08T10:06:39.636Z,63.58
2023-02-08T10:12:12.337Z,62.83
2023-02-08T10:17:37.232Z,66.24
2023-02-08T10:23:25.698Z,68.88
2023-02-08T10:28:39.978Z,69.94
2023-02-08T10:34:03.641Z,71.46
2023-02-08T10:39:21.077Z,71.72
2023-02-08T10:45:01.921Z,70.76
2023-02-08T10:50:18.695Z,75.28
2023-02-08T10:55:25.000Z,75.91
2023-02-08T11:00:34.347Z,76.33
2023-02-08T11:05:41.387Z,78.51
2023-02-08T11:11:08.799Z,76.80
2023-02-08T11:16:16.792Z,73.98
2023-02-08T11:21:30.269Z,71.30
2023-02-08T11:26:39.114Z,74.31
2023-02-08T11:32:03.568Z,69.68
2023-02-08T11:37:33.189Z,69.72
2023-02-08T11:42:41.219Z,71.46
2023-02-08T11:47:48.588Z,78.07
2023-02-08T11:53:01.992Z,84.95
2023-02-08T11:58:18.350Z,88.66
2023-02-08T12:03:28.832Z,87.74
2023-02-08T12:09:01.251Z,84.10
2023-02-08T12:14:06.118Z,85.59
2023-02-08T12:19:26.491Z,82.51
2023-02-08T12:24:50.737Z,81.09
2023-02-08T12:30:30.604Z,76.29
2023-02-08T12:36:15.001Z,77.30
2023-02-08T12:41:39.240Z,78.23
2023-02-08T12:46:53.792Z,75.22
2023-02-08T12:52:16.457Z,76.21
2023-02-08T12:57:21.714Z,83.90
2023-02-08T13:02:33.102Z,81.14
2023-02-08T13:07:44.109Z,83.41
2023-02-08T13:12:49.910Z,82.79
2023-02-08T13:17:56.739Z,85.27
2023-02-08T13:23:06.861Z,85.03
2023-02-08T13:28:17.351Z,82.17
2023-02-08T13:34:01.558Z,86.72
2023-02-08T13:39:47.352Z,89.15
2023-02-08T13:44:55.952Z,90.62
2023-02-08T13:50:07.742Z,88.07
2023-02-08T13:55:36.168Z,87.26
2023-02-08T14:00:59.365Z,88.89
2023-02-08T14:06:29.818Z,90.77
2023-02-08T14:11:45.731Z,93.96
2023-02-08T14:17:07.964Z,90.86
2023-02-08T14:22:19.071Z,90.51
2023-02-08T14:27:33.557Z,93.25
2023-02-08T14:32:41.811Z,94.16
2023-02-08T14:37:45.122Z,94.75
2023-02-08T14:43:06.354Z,96.45
2023-02-08T14:48:28.876Z,94.96
2023-02-08T14:53:54.777Z,95.56
2023-02-08T14:59:01.348Z,93.97
2023-02-08T15:04:04.197Z,93.61
2023-02-08T15:09:12.791Z,94.79
2023-02-08T15:14:20.352Z,95.12
2023-02-08T15:19:29.053Z,95.17
2023-02-08T15:24:31.380Z,95.10
2023-02-08T15:29:44.689Z,97.79
2023-02-08T15:34:54.999Z,98.21
2023-02-08T15:39:59.160Z,98.09
2023-02-08T15:45:03.514Z,94.85
2023-02-08T15:50:25.564Z,94.39
2023-02-08T15:55:33.267Z,95.00
2023-02-08T16:00:38.523Z,95.39
2023-02-08T16:05:40.975Z,95.77
2023-02-08T16:10:47.924Z,98.43
2023-02-08T16:16:03.783Z,100.00
2023-02-08T16:21:30.063Z,100.00
2023-02-08T16:26:55.698Z,99.69
2023-02-08T16:32:07.861Z,100.00
2023-02-08T16:37:27.187Z,100.00
2023-02-08T16:42:40.253Z,100.00
2023-02-08T16:47:51.284Z,100.00
2023-02-08T16:53:01.519Z,100.00
2023-02-08T16:58:03.961Z,100.00
2023-02-08T17:03:06.318Z,100.00
2023-02-08T17:08:15.721Z,100.00
2023-02-08T17:13:21.164Z,100.00
2023-02-08T17:18:23.973Z,100.00
2023-02-08T17:23:27.039Z,100.00
2023-02-08T17:28:29.442Z,100.00
2023-02-08T17:33:36.941Z,100.00
2023-02-08T17:38:42.200Z,100.00
2023-02-08T17:43:44.875Z,100.00
2023-02-08T17:48:48.355Z,100.00
2023-02-08T17:53:51.909Z,100.00
2023-02-08T17:58:55.796Z,99.84
2023-02-08T18:04:00.349Z,100.00
2023-02-08T18:09:02.715Z,100.00
2023-02-08T18:14:05.173Z,100.00
2023-02-08T18:19:07.520Z,100.00
2023-02-08T18:24:10.977Z,100.00
2023-02-08T18:29:13.245Z,100.00
2023-02-08T18:34:16.560Z,99.58
2023-02-08T18:39:23.417Z,99.66
2023-02-08T18:44:25.763Z,100.00
2023-02-08T18:49:28.179Z,100.00
2023-02-08T18:54:30.653Z,100.00
2023-02-08T18:59:36.005Z,100.00
2023-02-08T19:04:39.512Z,100.00
2023-02-08T19:09:41.694Z,100.00
2023-02-08T19:14:44.207Z,100.00
2023-02-08T19:19:46.899Z,100.00
2023-02-08T19:24:49.206Z,100.00
2023-02-08T19:29:56.463Z,100.00
2023-02-08T19:34:58.979Z,99.84
2023-02-08T19:40:01.217Z,98.80
2023-02-08T19:45:03.717Z,100.00
2023-02-08T19:50:06.772Z,99.40
2023-02-08T19:55:10.668Z,98.36
2023-02-08T20:00:22.906Z,97.25
2023-02-08T20:05:26.541Z,97.74
2023-02-08T20:10:28.985Z,97.16
2023-02-08T20:15:31.222Z,96.29
2023-02-08T20:20:34.010Z,95.99
2023-02-08T20:25:36.606Z,95.91
2023-02-08T20:30:41.045Z,95.28
2023-02-08T20:35:43.647Z,96.13
2023-02-08T20:40:46.130Z,96.09
2023-02-08T20:45:48.476Z,95.56
2023-02-08T20:50:50.706Z,95.19
2023-02-08T20:55:53.077Z,95.45
2023-02-08T21:00:55.354Z,96.82
2023-02-08T21:05:57.549Z,96.18
2023-02-08T21:11:02.743Z,96.39
2023-02-08T21:16:07.647Z,96.94
2023-02-08T21:21:11.001Z,97.36
2023-02-08T21:26:16.461Z,96.95
2023-02-08T21:31:22.369Z,97.90
2023-02-08T21:36:25.038Z,99.49
2023-02-08T21:41:31.133Z,100.00
2023-02-08T21:46:33.519Z,100.00
2023-02-08T21:51:55.849Z,100.00
2023-02-08T21:57:08.077Z,99.01
2023-02-08T22:02:26.152Z,98.77
2023-02-08T22:07:29.554Z,97.82
2023-02-08T22:12:31.659Z,96.84
2023-02-08T22:17:33.802Z,96.69
2023-02-08T22:22:36.516Z,97.79
2023-02-08T22:27:39.501Z,98.66
2023-02-08T22:32:43.605Z,97.24
2023-02-08T22:37:46.036Z,97.10
2023-02-08T22:42:48.274Z,98.28
2023-02-08T22:47:50.546Z,99.49
2023-02-08T22:52:52.756Z,99.81
2023-02-08T22:57:55.151Z,98.30
2023-02-08T23:02:57.531Z,97.44
2023-02-08T23:07:59.894Z,97.33
2023-02-08T23:13:02.315Z,95.65
2023-02-08T23:18:05.369Z,94.96
2023-02-08T23:23:08.263Z,96.03
2023-02-08T23:28:12.186Z,98.48
2023-02-08T23:33:14.341Z,98.57
2023-02-08T23:38:16.536Z,99.08
2023-02-08T23:43:18.843Z,97.88
2023-02-08T23:48:21.283Z,97.01
2023-02-08T23:53:23.543Z,98.22
2023-02-08T23:58:25.642Z,97.71
